地図

経路データ

SID SEASON NUMBER BASIN SUBBASIN NAME ISO_TIME NATURE LAT LON WMO_WIND WMO_PRES WMO_AGENCY TRACK_TYPE DIST2LAND LANDFALL IFLAG USA_AGENCY USA_ATCF_ID USA_LAT USA_LON USA_RECORD USA_STATUS USA_WIND USA_PRES USA_SSHS USA_R34_NE USA_R34_SE USA_R34_SW USA_R34_NW USA_R50_NE USA_R50_SE USA_R50_SW USA_R50_NW USA_R64_NE USA_R64_SE USA_R64_SW USA_R64_NW USA_POCI USA_ROCI USA_RMW USA_EYE TOKYO_LAT TOKYO_LON TOKYO_GRADE TOKYO_WIND TOKYO_PRES TOKYO_R50_DIR TOKYO_R50_LONG TOKYO_R50_SHORT TOKYO_R30_DIR TOKYO_R30_LONG TOKYO_R30_SHORT TOKYO_LAND CMA_LAT CMA_LON CMA_CAT CMA_WIND CMA_PRES HKO_LAT HKO_LON HKO_CAT HKO_WIND HKO_PRES NEWDELHI_LAT NEWDELHI_LON NEWDELHI_GRADE NEWDELHI_WIND NEWDELHI_PRES NEWDELHI_CI NEWDELHI_DP NEWDELHI_POCI REUNION_LAT REUNION_LON REUNION_TYPE REUNION_WIND REUNION_PRES REUNION_TNUM REUNION_CI REUNION_RMW REUNION_R34_NE REUNION_R34_SE REUNION_R34_SW REUNION_R34_NW REUNION_R50_NE REUNION_R50_SE REUNION_R50_SW REUNION_R50_NW REUNION_R64_NE REUNION_R64_SE REUNION_R64_SW REUNION_R64_NW BOM_LAT BOM_LON BOM_TYPE BOM_WIND BOM_PRES BOM_TNUM BOM_CI BOM_RMW BOM_R34_NE BOM_R34_SE BOM_R34_SW BOM_R34_NW BOM_R50_NE BOM_R50_SE BOM_R50_SW BOM_R50_NW BOM_R64_NE BOM_R64_SE BOM_R64_SW BOM_R64_NW BOM_ROCI BOM_POCI BOM_EYE BOM_POS_METHOD BOM_PRES_METHOD NADI_LAT NADI_LON NADI_CAT NADI_WIND NADI_PRES WELLINGTON_LAT WELLINGTON_LON WELLINGTON_WIND WELLINGTON_PRES DS824_LAT DS824_LON DS824_STAGE DS824_WIND DS824_PRES TD9636_LAT TD9636_LON TD9636_STAGE TD9636_WIND TD9636_PRES TD9635_LAT TD9635_LON TD9635_WIND TD9635_PRES TD9635_ROCI NEUMANN_LAT NEUMANN_LON NEUMANN_CLASS NEUMANN_WIND NEUMANN_PRES MLC_LAT MLC_LON MLC_CLASS MLC_WIND MLC_PRES USA_GUST BOM_GUST BOM_GUST_PER REUNION_GUST REUNION_GUST_PER USA_SEAHGT USA_SEARAD_NE USA_SEARAD_SE USA_SEARAD_SW USA_SEARAD_NW STORM_SPEED STORM_DIR
2001327N31309 2001 97 NA NA OLGA 2001-11-23 06:00:00 ET 30.5000 -51.0000 25 1003 hurdat_atl main 1802 1802 O_____________ hurdat_atl AL172001 30.5000 -51.0000 EX 25 1003 -4 3 0
2001327N31309 2001 97 NA NA OLGA 2001-11-23 09:00:00 ET 30.3725 -51.0276 main 1813 1813 P_____________ AL172001 30.3725 -51.0276 EX 25 1001 -4 3 0
2001327N31309 2001 97 NA NA OLGA 2001-11-23 12:00:00 ET 30.2000 -51.0000 25 1000 hurdat_atl main 1835 1835 O_____________ hurdat_atl AL172001 30.2000 -51.0000 EX 25 1000 -4 4 163
2001327N31309 2001 97 NA NA OLGA 2001-11-23 15:00:00 ET 29.9575 -50.8799 main 1858 1858 P_____________ AL172001 29.9575 -50.8799 EX 27 997 -4 6 152
2001327N31309 2001 97 NA NA OLGA 2001-11-23 18:00:00 ET 29.7000 -50.7000 30 994 hurdat_atl main 1894 1894 O_____________ hurdat_atl AL172001 29.7000 -50.7000 EX 30 994 -4 6 146
2001327N31309 2001 97 NA NA OLGA 2001-11-23 21:00:00 ET 29.4625 -50.4999 main 1918 1918 P_____________ AL172001 29.4625 -50.4999 EX 40 992 -4 5 139
2001327N31309 2001 97 NA NA OLGA 2001-11-24 00:00:00 SS 29.3000 -50.3000 50 990 hurdat_atl main 1942 1942 O_____________ hurdat_atl AL172001 29.3000 -50.3000 SS 50 990 -2 4 123
2001327N31309 2001 97 NA NA OLGA 2001-11-24 03:00:00 SS 29.2550 -50.1351 main 1944 1944 P_____________ AL172001 29.2550 -50.1351 SS 50 990 -2 3 90
2001327N31309 2001 97 NA NA OLGA 2001-11-24 06:00:00 SS 29.3000 -50.0000 50 990 hurdat_atl main 1946 1946 O_____________ hurdat_atl AL172001 29.3000 -50.0000 SS 50 990 -2 2 68
2001327N31309 2001 97 NA NA OLGA 2001-11-24 09:00:00 SS 29.3400 -49.8998 main 1947 1926 P_____________ AL172001 29.3400 -49.8998 SS 50 989 -2 3 41
2001327N31309 2001 97 NA NA OLGA 2001-11-24 12:00:00 TS 29.5000 -49.8000 50 989 hurdat_atl main 1926 1896 O_____________ hurdat_atl AL172001 29.5000 -49.8000 TS 50 989 0 6 31
2001327N31309 2001 97 NA NA OLGA 2001-11-24 15:00:00 TS 29.8398 -49.5541 main 1896 1842 P_____________ AL172001 29.8398 -49.5541 TS 50 989 0 8 18
2001327N31309 2001 97 NA NA OLGA 2001-11-24 18:00:00 TS 30.3000 -49.5000 50 989 hurdat_atl main 1842 1781 O_____________ hurdat_atl AL172001 30.3000 -49.5000 TS 50 989 0 10 342
2001327N31309 2001 97 NA NA OLGA 2001-11-24 21:00:00 TS 30.8227 -49.9210 main 1781 1717 P_____________ AL172001 30.8227 -49.9210 TS 50 989 0 14 317
2001327N31309 2001 97 NA NA OLGA 2001-11-25 00:00:00 TS 31.3000 -50.6000 50 989 hurdat_atl main 1717 1678 O_____________ hurdat_atl AL172001 31.3000 -50.6000 TS 50 989 0 14 305
2001327N31309 2001 97 NA NA OLGA 2001-11-25 03:00:00 TS 31.6323 -51.2699 main 1677 1650 P_____________ AL172001 31.6323 -51.2699 TS 50 989 0 13 293
2001327N31309 2001 97 NA NA OLGA 2001-11-25 06:00:00 TS 31.8000 -52.0000 50 989 hurdat_atl main 1650 1636 O_____________ hurdat_atl AL172001 31.8000 -52.0000 TS 50 989 0 13 280
2001327N31309 2001 97 NA NA OLGA 2001-11-25 09:00:00 TS 31.8547 -52.7420 main 1636 1636 P_____________ AL172001 31.8547 -52.7420 TS 52 989 0 13 266
2001327N31309 2001 97 NA NA OLGA 2001-11-25 12:00:00 TS 31.7000 -53.5000 55 989 hurdat_atl main 1639 1636 O_____________ hurdat_atl AL172001 31.7000 -53.5000 TS 55 989 0 15 247
2001327N31309 2001 97 NA NA OLGA 2001-11-25 15:00:00 TS 31.2807 -54.3423 main 1655 1652 P_____________ AL172001 31.2807 -54.3423 TS 57 988 0 16 235
2001327N31309 2001 97 NA NA OLGA 2001-11-25 18:00:00 TS 30.8000 -55.0000 60 987 hurdat_atl main 1679 1679 O_____________ hurdat_atl AL172001 30.8000 -55.0000 TS 60 987 0 11 225
2001327N31309 2001 97 NA NA OLGA 2001-11-25 21:00:00 TS 30.4967 -55.2387 main 1699 1687 P_____________ AL172001 30.4967 -55.2387 TS 60 983 0 6 208
2001327N31309 2001 97 NA NA OLGA 2001-11-26 00:00:00 TS 30.3000 -55.3000 60 979 hurdat_atl main 1687 1664 O_____________ hurdat_atl AL172001 30.3000 -55.3000 TS 60 979 0 4 206
2001327N31309 2001 97 NA NA OLGA 2001-11-26 03:00:00 TS 30.1250 -55.4501 main 1658 1652 P_____________ AL172001 30.1250 -55.4501 TS 60 979 0 3 233
2001327N31309 2001 97 NA NA OLGA 2001-11-26 06:00:00 TS 30.1000 -55.6000 60 979 hurdat_atl main 1652 1646 O_____________ hurdat_atl AL172001 30.1000 -55.6000 TS 60 979 0 3 302
2001327N31309 2001 97 NA NA OLGA 2001-11-26 09:00:00 TS 30.2975 -55.7647 main 1657 1657 P_____________ AL172001 30.2975 -55.7647 TS 62 979 0 6 332
2001327N31309 2001 97 NA NA OLGA 2001-11-26 12:00:00 TS 30.6000 -55.9000 65 979 hurdat_atl main 1657 1633 O_____________ hurdat_atl AL172001 30.6000 -55.9000 HU 65 979 1 5 342
2001327N31309 2001 97 NA NA OLGA 2001-11-26 15:00:00 TS 30.8125 -55.9578 main 1633 1603 P_____________ AL172001 30.8125 -55.9578 HU 65 978 1 5 350
2001327N31309 2001 97 NA NA OLGA 2001-11-26 18:00:00 TS 31.1000 -56.0000 65 977 hurdat_atl main 1603 1554 O_____________ hurdat_atl AL172001 31.1000 -56.0000 HU 65 977 1 210 120 120 270 1008 400 15 8 354
2001327N31309 2001 97 NA NA OLGA 2001-11-26 21:00:00 TS 31.5998 -56.0478 main 1554 1497 P_____________ AL172001 31.5998 -56.0478 HU 70 976 1 205 160 120 285 1008 380 15 10 350
2001327N31309 2001 97 NA NA OLGA 2001-11-27 00:00:00 TS 32.1000 -56.2000 75 975 hurdat_atl main 1497 1439 O_____________ hurdat_atl AL172001 32.1000 -56.2000 HU 75 975 1 200 200 120 300 1008 360 15 10 333
2001327N31309 2001 97 NA NA OLGA 2001-11-27 03:00:00 TS 32.5080 -56.5989 main 1439 1411 P_____________ AL172001 32.5080 -56.5989 HU 77 974 1 8 307
2001327N31309 2001 97 NA NA OLGA 2001-11-27 06:00:00 TS 32.6000 -57.0000 80 973 hurdat_atl main 1411 1411 O_____________ hurdat_atl AL172001 32.6000 -57.0000 HU 80 973 1 7 230
2001327N31309 2001 97 NA NA OLGA 2001-11-27 09:00:00 TS 32.0494 -57.2507 main 1458 1458 P_____________ AL172001 32.0494 -57.2507 HU 80 973 1 11 189
2001327N31309 2001 97 NA NA OLGA 2001-11-27 12:00:00 TS 31.5000 -57.2000 80 974 hurdat_atl main 1512 1512 O_____________ hurdat_atl AL172001 31.5000 -57.2000 HU 80 974 1 7 127
2001327N31309 2001 97 NA NA OLGA 2001-11-27 15:00:00 TS 31.6464 -56.6317 main 1528 1511 P_____________ AL172001 31.6464 -56.6317 HU 77 974 1 11 64
2001327N31309 2001 97 NA NA OLGA 2001-11-27 18:00:00 TS 32.0000 -56.0000 75 975 hurdat_atl main 1515 1506 O_____________ hurdat_atl AL172001 32.0000 -56.0000 HU 75 975 1 9 53
2001327N31309 2001 97 NA NA OLGA 2001-11-27 21:00:00 TS 32.1645 -55.8169 main 1506 1496 P_____________ AL172001 32.1645 -55.8169 HU 75 975 1 3 29
2001327N31309 2001 97 NA NA OLGA 2001-11-28 00:00:00 TS 32.3000 -55.8000 75 975 hurdat_atl main 1496 1482 O_____________ hurdat_atl AL172001 32.3000 -55.8000 HU 75 975 1 3 18
2001327N31309 2001 97 NA NA OLGA 2001-11-28 03:00:00 TS 32.4874 -55.6975 main 1482 1472 P_____________ AL172001 32.4874 -55.6975 HU 75 975 1 3 16
2001327N31309 2001 97 NA NA OLGA 2001-11-28 06:00:00 TS 32.6000 -55.7000 75 975 hurdat_atl main 1472 1463 O_____________ hurdat_atl AL172001 32.6000 -55.7000 HU 75 975 1 200 200 120 300 1010 425 15 2 305
2001327N31309 2001 97 NA NA OLGA 2001-11-28 09:00:00 TS 32.5974 -55.8818 main 1463 1458 P_____________ AL172001 32.5974 -55.8818 HU 75 976 1 160 160 120 300 1010 425 15 5 245
2001327N31309 2001 97 NA NA OLGA 2001-11-28 12:00:00 TS 32.4000 -56.2000 75 977 hurdat_atl main 1467 1467 O_____________ hurdat_atl AL172001 32.4000 -56.2000 HU 75 977 1 120 120 120 300 1010 425 15 9 224
2001327N31309 2001 97 NA NA OLGA 2001-11-28 15:00:00 TS 31.9677 -56.5932 main 1488 1488 P_____________ AL172001 31.9677 -56.5932 HU 72 978 1 120 120 120 287 1011 425 15 12 214
2001327N31309 2001 97 NA NA OLGA 2001-11-28 18:00:00 TS 31.4000 -57.0000 70 979 hurdat_atl main 1531 1531 O_____________ hurdat_atl AL172001 31.4000 -57.0000 HU 70 979 1 120 120 120 275 1012 425 15 13 208
2001327N31309 2001 97 NA NA OLGA 2001-11-28 21:00:00 TS 30.8495 -57.2765 main 1579 1555 P_____________ AL172001 30.8495 -57.2765 HU 67 983 1 120 120 120 262 1011 387 15 12 205
2001327N31309 2001 97 NA NA OLGA 2001-11-29 00:00:00 TS 30.3000 -57.6000 65 987 hurdat_atl main 1555 1482 O_____________ hurdat_atl AL172001 30.3000 -57.6000 HU 65 987 1 120 120 120 250 1010 350 15 13 213
2001327N31309 2001 97 NA NA OLGA 2001-11-29 03:00:00 TS 29.7848 -58.0898 main 1482 1404 P_____________ AL172001 29.7848 -58.0898 HU 62 988 0 110 110 110 262 1010 350 15 14 224
2001327N31309 2001 97 NA NA OLGA 2001-11-29 06:00:00 TS 29.3000 -58.7000 60 990 hurdat_atl main 1404 1336 O_____________ hurdat_atl AL172001 29.3000 -58.7000 TS 60 990 0 100 100 100 275 1010 350 15 14 230
2001327N31309 2001 97 NA NA OLGA 2001-11-29 09:00:00 TS 28.8571 -59.3540 main 1331 1250 P_____________ AL172001 28.8571 -59.3540 TS 60 991 0 100 100 100 262 1012 337 17 15 234
2001327N31309 2001 97 NA NA OLGA 2001-11-29 12:00:00 TS 28.4000 -60.1000 60 992 hurdat_atl main 1250 1165 O_____________ hurdat_atl AL172001 28.4000 -60.1000 TS 60 992 0 100 100 100 250 1014 325 20 17 235
2001327N31309 2001 97 NA NA OLGA 2001-11-29 15:00:00 TS 27.8652 -60.9501 main 1160 1068 P_____________ AL172001 27.8652 -60.9501 TS 57 993 0 100 100 100 225 1014 312 20 19 234
2001327N31309 2001 97 NA NA OLGA 2001-11-29 18:00:00 TS 27.3000 -61.8000 55 994 hurdat_atl main 1068 991 O_____________ hurdat_atl AL172001 27.3000 -61.8000 TS 55 994 0 100 100 100 200 1014 300 20 18 231
2001327N31309 2001 97 NA NA OLGA 2001-11-29 21:00:00 TS 26.7342 -62.5141 main 980 906 P_____________ AL172001 26.7342 -62.5141 TS 50 996 0 110 110 110 200 1012 250 20 17 229
2001327N31309 2001 97 NA NA OLGA 2001-11-30 00:00:00 TS 26.2000 -63.2000 45 998 hurdat_atl main 906 845 O_____________ hurdat_atl AL172001 26.2000 -63.2000 TS 45 998 0 120 120 120 200 1010 200 20 16 232
2001327N31309 2001 97 NA NA OLGA 2001-11-30 03:00:00 TS 25.7272 -63.9419 main 834 777 P_____________ AL172001 25.7272 -63.9419 TS 40 999 0 130 110 110 187 1010 200 20 16 236
2001327N31309 2001 97 NA NA OLGA 2001-11-30 06:00:00 TS 25.3000 -64.7000 35 1001 hurdat_atl main 777 726 O_____________ hurdat_atl AL172001 25.3000 -64.7000 TS 35 1001 0 140 100 100 175 1010 200 20 16 239
2001327N31309 2001 97 NA NA OLGA 2001-11-30 09:00:00 TS 24.8927 -65.4948 main 726 663 P_____________ AL172001 24.8927 -65.4948 TS 32 1002 -1 1009 187 40 16 240
2001327N31309 2001 97 NA NA OLGA 2001-11-30 12:00:00 TS 24.5000 -66.2000 30 1003 hurdat_atl main 663 600 O_____________ hurdat_atl AL172001 24.5000 -66.2000 TD 30 1003 -1 1008 175 60 14 233
2001327N31309 2001 97 NA NA OLGA 2001-11-30 15:00:00 TS 24.0621 -66.7172 main 600 542 P_____________ AL172001 24.0621 -66.7172 TD 30 1003 -1 1009 175 60 12 226
2001327N31309 2001 97 NA NA OLGA 2001-11-30 18:00:00 TS 23.7000 -67.1000 30 1004 hurdat_atl main 542 509 O_____________ hurdat_atl AL172001 23.7000 -67.1000 TD 30 1004 -1 1010 175 60 9 230
2001327N31309 2001 97 NA NA OLGA 2001-11-30 21:00:00 TS 23.5124 -67.4446 main 509 486 P_____________ AL172001 23.5124 -67.4446 TD 30 1004 -1 1010 175 60 6 241
2001327N31309 2001 97 NA NA OLGA 2001-12-01 00:00:00 TS 23.4000 -67.7000 30 1004 hurdat_atl main 486 467 O_____________ hurdat_atl AL172001 23.4000 -67.7000 TD 30 1004 -1 1010 175 60 5 236
2001327N31309 2001 97 NA NA OLGA 2001-12-01 03:00:00 TS 23.2499 -67.8724 main 457 442 P_____________ AL172001 23.2499 -67.8724 TD 30 1004 -1 1010 175 60 4 223
2001327N31309 2001 97 NA NA OLGA 2001-12-01 06:00:00 TS 23.1000 -68.0000 30 1005 hurdat_atl main 442 418 O_____________ hurdat_atl AL172001 23.1000 -68.0000 TD 30 1005 -1 1010 175 60 4 217
2001327N31309 2001 97 NA NA OLGA 2001-12-01 09:00:00 TS 22.9125 -68.1501 main 413 398 P_____________ AL172001 22.9125 -68.1501 TD 30 1004 -1 1010 175 60 4 223
2001327N31309 2001 97 NA NA OLGA 2001-12-01 12:00:00 TS 22.8000 -68.3000 30 1004 hurdat_atl main 398 394 O_____________ hurdat_atl AL172001 22.8000 -68.3000 TD 30 1004 -1 1010 175 60 3 257
2001327N31309 2001 97 NA NA OLGA 2001-12-01 15:00:00 TS 22.8475 -68.4500 main 394 394 P_____________ AL172001 22.8475 -68.4500 TD 30 1004 -1 1010 175 67 3 306
2001327N31309 2001 97 NA NA OLGA 2001-12-01 18:00:00 TS 23.0000 -68.6000 30 1004 hurdat_atl main 406 403 O_____________ hurdat_atl AL172001 23.0000 -68.6000 TD 30 1004 -1 1010 175 75 4 315
2001327N31309 2001 97 NA NA OLGA 2001-12-01 21:00:00 TS 23.1475 -68.7724 main 410 410 P_____________ AL172001 23.1475 -68.7724 TD 32 1003 -1 1010 175 67 5 325
2001327N31309 2001 97 NA NA OLGA 2001-12-02 00:00:00 TS 23.4000 -68.9000 35 1003 hurdat_atl main 439 439 O_____________ hurdat_atl AL172001 23.4000 -68.9000 TS 35 1003 0 60 60 1010 175 60 7 349
2001327N31309 2001 97 NA NA OLGA 2001-12-02 03:00:00 TS 23.7900 -68.9004 main 480 480 P_____________ AL172001 23.7900 -68.9004 TS 35 1003 0 67 67 1010 175 60 9 0
2001327N31309 2001 97 NA NA OLGA 2001-12-02 06:00:00 TS 24.3000 -68.9000 35 1003 hurdat_atl main 532 532 O_____________ hurdat_atl AL172001 24.3000 -68.9000 TS 35 1003 0 75 75 1010 175 60 11 354
2001327N31309 2001 97 NA NA OLGA 2001-12-02 09:00:00 TS 24.9000 -69.0272 main 581 581 P_____________ AL172001 24.9000 -69.0272 TS 37 1002 0 75 75 1010 175 60 12 347
2001327N31309 2001 97 NA NA OLGA 2001-12-02 12:00:00 TS 25.5000 -69.2000 40 1001 hurdat_atl main 617 617 O_____________ hurdat_atl AL172001 25.5000 -69.2000 TS 40 1001 0 75 75 60 1010 175 60 11 345
2001327N31309 2001 97 NA NA OLGA 2001-12-02 15:00:00 TS 25.9950 -69.3575 main 649 649 P_____________ AL172001 25.9950 -69.3575 TS 40 1001 0 75 75 60 1010 175 60 9 343
2001327N31309 2001 97 NA NA OLGA 2001-12-02 18:00:00 TS 26.4000 -69.5000 40 1001 hurdat_atl main 681 681 O_____________ hurdat_atl AL172001 26.4000 -69.5000 TS 40 1001 0 75 75 60 1010 175 60 8 343
2001327N31309 2001 97 NA NA OLGA 2001-12-02 21:00:00 TS 26.7375 -69.6076 main 704 704 P_____________ AL172001 26.7375 -69.6076 TS 37 1002 0 75 75 60 1011 147 60 6 344
2001327N31309 2001 97 NA NA OLGA 2001-12-03 00:00:00 TS 27.0000 -69.7000 35 1004 hurdat_atl main 729 729 O_____________ hurdat_atl AL172001 27.0000 -69.7000 TS 35 1004 0 75 75 60 1013 120 60 5 339
2001327N31309 2001 97 NA NA OLGA 2001-12-03 03:00:00 TS 27.2150 -69.8150 main 744 744 P_____________ AL172001 27.2150 -69.8150 TS 35 1004 0 60 60 1013 120 52 4 336
2001327N31309 2001 97 NA NA OLGA 2001-12-03 06:00:00 TS 27.4000 -69.9000 35 1005 hurdat_atl main 760 760 O_____________ hurdat_atl AL172001 27.4000 -69.9000 TS 35 1005 0 45 45 1013 120 45 4 345
2001327N31309 2001 97 NA NA OLGA 2001-12-03 09:00:00 TS 27.6375 -69.9376 main 780 780 P_____________ AL172001 27.6375 -69.9376 TS 35 1005 0 52 52 1013 120 45 4 0
2001327N31309 2001 97 NA NA OLGA 2001-12-03 12:00:00 TS 27.8000 -69.9000 35 1005 hurdat_atl main 801 801 O_____________ hurdat_atl AL172001 27.8000 -69.9000 TS 35 1005 0 60 60 1013 120 45 2 43
2001327N31309 2001 97 NA NA OLGA 2001-12-03 15:00:00 TS 27.7800 -69.7874 main 805 799 P_____________ AL172001 27.7800 -69.7874 TS 35 1005 0 60 60 1013 120 45 3 111
2001327N31309 2001 97 NA NA OLGA 2001-12-03 18:00:00 TS 27.7000 -69.6000 35 1005 hurdat_atl main 803 803 O_____________ hurdat_atl AL172001 27.7000 -69.6000 TS 35 1005 0 60 60 1013 120 45 4 105
2001327N31309 2001 97 NA NA OLGA 2001-12-03 21:00:00 TS 27.6848 -69.3949 main 812 812 P_____________ AL172001 27.6848 -69.3949 TS 32 1005 -1 1013 120 45 4 90
2001327N31309 2001 97 NA NA OLGA 2001-12-04 00:00:00 TS 27.7000 -69.1000 30 1006 hurdat_atl main 826 826 O_____________ hurdat_atl AL172001 27.7000 -69.1000 TD 30 1006 -1 1013 120 45 7 84
2001327N31309 2001 97 NA NA OLGA 2001-12-04 03:00:00 TS 27.7505 -68.6277 main 861 861 P_____________ AL172001 27.7505 -68.6277 TD 30 1006 -1 1013 120 45 8 83
2001327N31309 2001 97 NA NA OLGA 2001-12-04 06:00:00 TS 27.8000 -68.2000 30 1006 hurdat_atl main 882 882 O_____________ hurdat_atl AL172001 27.8000 -68.2000 TD 30 1006 -1 1013 120 45 5 77
2001327N31309 2001 97 NA NA OLGA 2001-12-04 09:00:00 TS 27.8671 -68.0778 main 897 893 P_____________ AL172001 27.8671 -68.0778 TD 30 1006 -1 1013 120 45 2 90
2001327N31309 2001 97 NA NA OLGA 2001-12-04 12:00:00 TS 27.8000 -68.0000 30 1006 hurdat_atl main 893 878 O_____________ hurdat_atl AL172001 27.8000 -68.0000 TD 30 1006 -1 1013 120 45 5 144
2001327N31309 2001 97 NA NA OLGA 2001-12-04 15:00:00 TS 27.4779 -67.7565 main 878 861 P_____________ AL172001 27.4779 -67.7565 TD 30 1006 -1 1013 120 45 10 146
2001327N31309 2001 97 NA NA OLGA 2001-12-04 18:00:00 TS 27.0000 -67.4000 30 1006 hurdat_atl main 861 O_____________ hurdat_atl AL172001 27.0000 -67.4000 TD 30 1006 -1 1013 120 45 12 146

IBTrACS Databaseについて

本データベースは、米国NOAAが公開する1842年以降の世界の熱帯低気圧のベストトラックデータアーカイブInternational Best Track Archive for Climate Stewardship (IBTrACS)を、ウェブで閲覧しやすい形式に変換したものです。

最終更新日:2021-12-06